sensor_id;sensor_type;location;lat;lon;timestamp;temperature;humidity
12602;DHT22;30282;16.436;99.370;2023-12-04T00:01:00;23.40;99.90
12602;DHT22;30282;16.436;99.370;2023-12-04T00:03:32;23.40;99.90
12602;DHT22;30282;16.436;99.370;2023-12-04T00:06:01;23.40;99.90
12602;DHT22;30282;16.436;99.370;2023-12-04T00:08:33;23.40;99.90
12602;DHT22;30282;16.436;99.370;2023-12-04T00:11:03;23.40;99.90
12602;DHT22;30282;16.436;99.370;2023-12-04T00:13:34;23.50;99.90
12602;DHT22;30282;16.436;99.370;2023-12-04T00:16:06;23.50;99.90
12602;DHT22;30282;16.436;99.370;2023-12-04T00:18:36;23.60;99.90
12602;DHT22;30282;16.436;99.370;2023-12-04T00:21:08;23.70;99.90
12602;DHT22;30282;16.436;99.370;2023-12-04T00:23:37;23.80;99.90
12602;DHT22;30282;16.436;99.370;2023-12-04T00:26:07;24.00;99.90
12602;DHT22;30282;16.436;99.370;2023-12-04T00:28:47;24.20;99.90
12602;DHT22;30282;16.436;99.370;2023-12-04T00:31:16;24.30;99.90
12602;DHT22;30282;16.436;99.370;2023-12-04T00:33:46;24.50;99.90
12602;DHT22;30282;16.436;99.370;2023-12-04T00:36:15;24.60;99.90
12602;DHT22;30282;16.436;99.370;2023-12-04T00:38:46;24.70;99.90
12602;DHT22;30282;16.436;99.370;2023-12-04T00:41:15;24.80;99.90
12602;DHT22;30282;16.436;99.370;2023-12-04T00:43:46;24.90;99.90
12602;DHT22;30282;16.436;99.370;2023-12-04T00:46:16;25.00;99.90
12602;DHT22;30282;16.436;99.370;2023-12-04T00:48:48;25.10;99.90
12602;DHT22;30282;16.436;99.370;2023-12-04T00:51:17;25.10;99.90
12602;DHT22;30282;16.436;99.370;2023-12-04T00:53:47;25.30;99.90
12602;DHT22;30282;16.436;99.370;2023-12-04T00:56:16;25.40;99.90
12602;DHT22;30282;16.436;99.370;2023-12-04T00:58:47;25.50;99.90
12602;DHT22;30282;16.436;99.370;2023-12-04T01:01:16;25.60;99.90
12602;DHT22;30282;16.436;99.370;2023-12-04T01:03:46;25.70;99.90
12602;DHT22;30282;16.436;99.370;2023-12-04T01:06:21;25.90;99.90
12602;DHT22;30282;16.436;99.370;2023-12-04T01:08:52;26.00;99.90
12602;DHT22;30282;16.436;99.370;2023-12-04T01:11:21;26.00;99.90
12602;DHT22;30282;16.436;99.370;2023-12-04T01:13:52;26.20;99.90
12602;DHT22;30282;16.436;99.370;2023-12-04T01:16:22;26.40;99.90
12602;DHT22;30282;16.436;99.370;2023-12-04T01:18:51;26.50;99.90
12602;DHT22;30282;16.436;99.370;2023-12-04T01:21:28;26.60;99.90
12602;DHT22;30282;16.436;99.370;2023-12-04T01:23:58;26.60;99.90
12602;DHT22;30282;16.436;99.370;2023-12-04T01:26:29;26.60;99.90
12602;DHT22;30282;16.436;99.370;2023-12-04T01:29:01;26.70;99.90
12602;DHT22;30282;16.436;99.370;2023-12-04T01:31:30;26.80;99.90
12602;DHT22;30282;16.436;99.370;2023-12-04T01:34:00;27.00;99.90
12602;DHT22;30282;16.436;99.370;2023-12-04T01:36:29;27.10;99.90
12602;DHT22;30282;16.436;99.370;2023-12-04T01:38:58;27.30;99.90
12602;DHT22;30282;16.436;99.370;2023-12-04T01:41:28;27.50;99.90
12602;DHT22;30282;16.436;99.370;2023-12-04T01:43:59;27.70;99.90
12602;DHT22;30282;16.436;99.370;2023-12-04T01:46:28;28.00;99.90
12602;DHT22;30282;16.436;99.370;2023-12-04T01:48:59;28.10;99.90
12602;DHT22;30282;16.436;99.370;2023-12-04T01:51:32;28.20;99.90
12602;DHT22;30282;16.436;99.370;2023-12-04T01:54:04;28.30;99.90
12602;DHT22;30282;16.436;99.370;2023-12-04T01:56:34;28.30;99.90
12602;DHT22;30282;16.436;99.370;2023-12-04T01:59:06;28.60;99.90
12602;DHT22;30282;16.436;99.370;2023-12-04T02:01:38;28.70;99.90
12602;DHT22;30282;16.436;99.370;2023-12-04T02:04:08;28.80;99.90
12602;DHT22;30282;16.436;99.370;2023-12-04T02:06:37;29.00;99.90
12602;DHT22;30282;16.436;99.370;2023-12-04T02:09:07;29.20;99.90
12602;DHT22;30282;16.436;99.370;2023-12-04T02:11:39;29.30;99.90
12602;DHT22;30282;16.436;99.370;2023-12-04T02:14:10;29.40;99.90
12602;DHT22;30282;16.436;99.370;2023-12-04T02:16:41;29.60;99.90
12602;DHT22;30282;16.436;99.370;2023-12-04T02:19:12;29.60;99.90
12602;DHT22;30282;16.436;99.370;2023-12-04T02:21:44;29.60;99.90
12602;DHT22;30282;16.436;99.370;2023-12-04T02:24:17;29.60;99.90
12602;DHT22;30282;16.436;99.370;2023-12-04T02:26:52;29.60;99.90
12602;DHT22;30282;16.436;99.370;2023-12-04T02:29:31;29.70;99.90
12602;DHT22;30282;16.436;99.370;2023-12-04T02:32:06;29.80;99.90
12602;DHT22;30282;16.436;99.370;2023-12-04T02:34:37;29.70;99.90
12602;DHT22;30282;16.436;99.370;2023-12-04T02:37:07;29.80;99.90
12602;DHT22;30282;16.436;99.370;2023-12-04T02:39:42;30.10;99.90
12602;DHT22;30282;16.436;99.370;2023-12-04T02:42:20;30.30;99.90
12602;DHT22;30282;16.436;99.370;2023-12-04T02:44:52;30.40;99.90
12602;DHT22;30282;16.436;99.370;2023-12-04T02:47:27;30.60;99.90
12602;DHT22;30282;16.436;99.370;2023-12-04T02:49:59;30.50;99.90
12602;DHT22;30282;16.436;99.370;2023-12-04T02:52:36;30.60;99.90
12602;DHT22;30282;16.436;99.370;2023-12-04T02:55:10;30.50;99.90
12602;DHT22;30282;16.436;99.370;2023-12-04T02:57:50;30.40;99.90
12602;DHT22;30282;16.436;99.370;2023-12-04T03:00:35;30.30;99.90
12602;DHT22;30282;16.436;99.370;2023-12-04T03:03:09;30.50;99.90
12602;DHT22;30282;16.436;99.370;2023-12-04T03:05:38;30.70;99.90
12602;DHT22;30282;16.436;99.370;2023-12-04T03:08:10;30.70;99.90
12602;DHT22;30282;16.436;99.370;2023-12-04T03:10:44;30.70;99.90
12602;DHT22;30282;16.436;99.370;2023-12-04T03:13:14;30.70;99.90
12602;DHT22;30282;16.436;99.370;2023-12-04T03:15:43;30.90;99.90
12602;DHT22;30282;16.436;99.370;2023-12-04T03:18:13;30.80;99.90
12602;DHT22;30282;16.436;99.370;2023-12-04T03:20:44;31.10;99.90
12602;DHT22;30282;16.436;99.370;2023-12-04T03:23:16;31.30;99.90
12602;DHT22;30282;16.436;99.370;2023-12-04T03:25:49;31.50;99.90
12602;DHT22;30282;16.436;99.370;2023-12-04T03:28:22;31.60;99.90
12602;DHT22;30282;16.436;99.370;2023-12-04T03:31:10;31.60;99.90
12602;DHT22;30282;16.436;99.370;2023-12-04T03:33:45;31.90;99.90
12602;DHT22;30282;16.436;99.370;2023-12-04T03:36:14;32.00;99.90
12602;DHT22;30282;16.436;99.370;2023-12-04T03:38:55;32.00;99.90
12602;DHT22;30282;16.436;99.370;2023-12-04T03:41:27;31.60;99.90
12602;DHT22;30282;16.436;99.370;2023-12-04T03:44:00;31.60;99.90
12602;DHT22;30282;16.436;99.370;2023-12-04T03:46:29;31.70;99.90
12602;DHT22;30282;16.436;99.370;2023-12-04T03:49:14;31.50;99.90
12602;DHT22;30282;16.436;99.370;2023-12-04T03:52:06;31.50;99.90
12602;DHT22;30282;16.436;99.370;2023-12-04T03:54:35;31.40;99.90
12602;DHT22;30282;16.436;99.370;2023-12-04T03:57:09;31.50;99.90
12602;DHT22;30282;16.436;99.370;2023-12-04T03:59:44;31.30;99.90
12602;DHT22;30282;16.436;99.370;2023-12-04T04:02:14;31.10;99.90
12602;DHT22;30282;16.436;99.370;2023-12-04T04:04:44;30.80;99.90
12602;DHT22;30282;16.436;99.370;2023-12-04T04:07:16;30.50;99.90
12602;DHT22;30282;16.436;99.370;2023-12-04T04:09:46;30.50;99.90
12602;DHT22;30282;16.436;99.370;2023-12-04T04:12:24;30.40;99.90
12602;DHT22;30282;16.436;99.370;2023-12-04T04:14:54;30.40;99.90
12602;DHT22;30282;16.436;99.370;2023-12-04T04:17:23;30.30;99.90
12602;DHT22;30282;16.436;99.370;2023-12-04T04:19:53;30.50;99.90
12602;DHT22;30282;16.436;99.370;2023-12-04T04:22:23;30.50;99.90
12602;DHT22;30282;16.436;99.370;2023-12-04T04:24:52;30.60;99.90
12602;DHT22;30282;16.436;99.370;2023-12-04T04:27:26;30.70;99.90
12602;DHT22;30282;16.436;99.370;2023-12-04T04:29:55;30.70;99.90
12602;DHT22;30282;16.436;99.370;2023-12-04T04:32:24;30.60;99.90
12602;DHT22;30282;16.436;99.370;2023-12-04T04:34:54;30.60;99.90
12602;DHT22;30282;16.436;99.370;2023-12-04T04:37:23;30.60;99.90
12602;DHT22;30282;16.436;99.370;2023-12-04T04:39:52;30.60;99.90
12602;DHT22;30282;16.436;99.370;2023-12-04T04:42:25;30.50;99.90
12602;DHT22;30282;16.436;99.370;2023-12-04T04:44:55;30.50;99.90
12602;DHT22;30282;16.436;99.370;2023-12-04T04:47:24;30.40;99.90
12602;DHT22;30282;16.436;99.370;2023-12-04T04:49:53;30.40;99.90
12602;DHT22;30282;16.436;99.370;2023-12-04T04:52:22;30.40;99.90
12602;DHT22;30282;16.436;99.370;2023-12-04T04:54:52;30.40;99.90
12602;DHT22;30282;16.436;99.370;2023-12-04T04:57:21;30.40;99.90
12602;DHT22;30282;16.436;99.370;2023-12-04T04:59:52;30.40;99.90
12602;DHT22;30282;16.436;99.370;2023-12-04T05:02:21;30.40;99.90
12602;DHT22;30282;16.436;99.370;2023-12-04T05:04:50;30.40;99.90
12602;DHT22;30282;16.436;99.370;2023-12-04T05:07:20;30.40;99.90
12602;DHT22;30282;16.436;99.370;2023-12-04T05:09:49;30.50;99.90
12602;DHT22;30282;16.436;99.370;2023-12-04T05:12:18;30.40;99.90
12602;DHT22;30282;16.436;99.370;2023-12-04T05:14:47;30.50;99.90
12602;DHT22;30282;16.436;99.370;2023-12-04T05:17:18;30.50;99.90
12602;DHT22;30282;16.436;99.370;2023-12-04T05:19:48;30.50;99.90
12602;DHT22;30282;16.436;99.370;2023-12-04T05:22:17;30.60;99.90
12602;DHT22;30282;16.436;99.370;2023-12-04T05:24:46;30.70;99.90
12602;DHT22;30282;16.436;99.370;2023-12-04T05:27:15;30.80;99.90
12602;DHT22;30282;16.436;99.370;2023-12-04T05:29:45;30.90;99.90
12602;DHT22;30282;16.436;99.370;2023-12-04T05:32:14;31.00;99.90
12602;DHT22;30282;16.436;99.370;2023-12-04T05:34:45;31.00;99.90
12602;DHT22;30282;16.436;99.370;2023-12-04T05:37:14;30.90;99.90
12602;DHT22;30282;16.436;99.370;2023-12-04T05:39:44;30.90;99.90
12602;DHT22;30282;16.436;99.370;2023-12-04T05:42:13;30.90;99.90
12602;DHT22;30282;16.436;99.370;2023-12-04T05:44:43;30.90;99.90
12602;DHT22;30282;16.436;99.370;2023-12-04T05:47:12;30.80;99.90
12602;DHT22;30282;16.436;99.370;2023-12-04T05:49:41;30.70;99.90
12602;DHT22;30282;16.436;99.370;2023-12-04T05:52:12;30.80;99.90
12602;DHT22;30282;16.436;99.370;2023-12-04T05:54:41;30.90;99.90
12602;DHT22;30282;16.436;99.370;2023-12-04T05:57:11;31.00;99.90
12602;DHT22;30282;16.436;99.370;2023-12-04T05:59:40;30.90;99.90
12602;DHT22;30282;16.436;99.370;2023-12-04T06:02:10;31.00;99.90
12602;DHT22;30282;16.436;99.370;2023-12-04T06:04:39;31.00;99.90
12602;DHT22;30282;16.436;99.370;2023-12-04T06:07:09;30.90;99.90
12602;DHT22;30282;16.436;99.370;2023-12-04T06:09:40;30.90;99.90
12602;DHT22;30282;16.436;99.370;2023-12-04T06:12:10;30.80;99.90
12602;DHT22;30282;16.436;99.370;2023-12-04T06:14:39;30.90;99.90
12602;DHT22;30282;16.436;99.370;2023-12-04T06:17:11;31.00;99.90
12602;DHT22;30282;16.436;99.370;2023-12-04T06:19:41;31.30;99.90
12602;DHT22;30282;16.436;99.370;2023-12-04T06:22:13;31.40;99.90
12602;DHT22;30282;16.436;99.370;2023-12-04T06:24:47;31.40;99.90
12602;DHT22;30282;16.436;99.370;2023-12-04T06:27:18;31.30;99.90
12602;DHT22;30282;16.436;99.370;2023-12-04T06:29:48;31.30;99.90
12602;DHT22;30282;16.436;99.370;2023-12-04T06:32:18;31.20;99.90
12602;DHT22;30282;16.436;99.370;2023-12-04T06:34:51;30.90;99.90
12602;DHT22;30282;16.436;99.370;2023-12-04T06:37:22;30.90;99.90
12602;DHT22;30282;16.436;99.370;2023-12-04T06:39:54;30.90;99.90
12602;DHT22;30282;16.436;99.370;2023-12-04T06:42:25;30.80;99.90
12602;DHT22;30282;16.436;99.370;2023-12-04T06:44:55;30.90;99.90
12602;DHT22;30282;16.436;99.370;2023-12-04T06:47:25;30.90;99.90
12602;DHT22;30282;16.436;99.370;2023-12-04T06:49:54;30.90;99.90
12602;DHT22;30282;16.436;99.370;2023-12-04T06:52:26;30.80;99.90
12602;DHT22;30282;16.436;99.370;2023-12-04T06:55:01;30.80;99.90
12602;DHT22;30282;16.436;99.370;2023-12-04T07:00:26;30.90;99.90
12602;DHT22;30282;16.436;99.370;2023-12-04T07:02:55;30.90;99.90
12602;DHT22;30282;16.436;99.370;2023-12-04T07:05:24;30.80;99.90
12602;DHT22;30282;16.436;99.370;2023-12-04T07:07:54;30.80;99.90
12602;DHT22;30282;16.436;99.370;2023-12-04T07:10:28;30.80;99.90
12602;DHT22;30282;16.436;99.370;2023-12-04T07:12:57;30.60;99.90
12602;DHT22;30282;16.436;99.370;2023-12-04T07:15:45;30.60;99.90
12602;DHT22;30282;16.436;99.370;2023-12-04T07:18:15;30.60;99.90
12602;DHT22;30282;16.436;99.370;2023-12-04T07:20:44;30.60;99.90
12602;DHT22;30282;16.436;99.370;2023-12-04T07:23:14;30.70;99.90
12602;DHT22;30282;16.436;99.370;2023-12-04T07:25:44;30.80;99.90
12602;DHT22;30282;16.436;99.370;2023-12-04T07:28:14;30.80;99.90
12602;DHT22;30282;16.436;99.370;2023-12-04T07:30:43;30.80;99.90
12602;DHT22;30282;16.436;99.370;2023-12-04T07:33:13;30.90;99.90
12602;DHT22;30282;16.436;99.370;2023-12-04T07:35:42;30.80;99.90
12602;DHT22;30282;16.436;99.370;2023-12-04T07:38:11;30.80;99.90
12602;DHT22;30282;16.436;99.370;2023-12-04T07:40:40;30.80;99.90
12602;DHT22;30282;16.436;99.370;2023-12-04T07:43:11;30.80;99.90
12602;DHT22;30282;16.436;99.370;2023-12-04T07:45:41;30.90;99.90
12602;DHT22;30282;16.436;99.370;2023-12-04T07:48:11;31.00;99.90
12602;DHT22;30282;16.436;99.370;2023-12-04T07:50:40;31.10;99.90
12602;DHT22;30282;16.436;99.370;2023-12-04T07:53:09;31.20;99.90
12602;DHT22;30282;16.436;99.370;2023-12-04T07:55:40;31.20;99.90
12602;DHT22;30282;16.436;99.370;2023-12-04T07:58:12;31.40;99.90
12602;DHT22;30282;16.436;99.370;2023-12-04T08:00:41;31.50;99.90
12602;DHT22;30282;16.436;99.370;2023-12-04T08:03:10;31.60;99.90
12602;DHT22;30282;16.436;99.370;2023-12-04T08:05:40;31.70;99.90
12602;DHT22;30282;16.436;99.370;2023-12-04T08:08:09;31.70;99.90
12602;DHT22;30282;16.436;99.370;2023-12-04T08:10:38;31.80;99.90
12602;DHT22;30282;16.436;99.370;2023-12-04T08:13:08;31.90;99.90
12602;DHT22;30282;16.436;99.370;2023-12-04T08:15:39;31.90;99.90
12602;DHT22;30282;16.436;99.370;2023-12-04T08:18:08;32.10;99.90
12602;DHT22;30282;16.436;99.370;2023-12-04T08:20:39;32.20;99.90
12602;DHT22;30282;16.436;99.370;2023-12-04T08:23:08;32.30;99.90
12602;DHT22;30282;16.436;99.370;2023-12-04T08:25:38;32.40;99.90
12602;DHT22;30282;16.436;99.370;2023-12-04T08:28:07;32.30;99.90
12602;DHT22;30282;16.436;99.370;2023-12-04T08:30:39;32.40;99.90
12602;DHT22;30282;16.436;99.370;2023-12-04T08:33:08;32.40;99.90
12602;DHT22;30282;16.436;99.370;2023-12-04T08:35:38;32.40;99.90
12602;DHT22;30282;16.436;99.370;2023-12-04T08:38:07;32.30;99.90
12602;DHT22;30282;16.436;99.370;2023-12-04T08:40:37;32.30;99.90
12602;DHT22;30282;16.436;99.370;2023-12-04T08:43:07;32.40;99.90
12602;DHT22;30282;16.436;99.370;2023-12-04T08:45:38;32.20;99.90
12602;DHT22;30282;16.436;99.370;2023-12-04T08:48:07;32.20;99.90
12602;DHT22;30282;16.436;99.370;2023-12-04T08:50:37;32.30;99.90
12602;DHT22;30282;16.436;99.370;2023-12-04T08:53:06;32.40;99.90
12602;DHT22;30282;16.436;99.370;2023-12-04T08:55:36;32.40;99.90
12602;DHT22;30282;16.436;99.370;2023-12-04T08:58:05;32.20;99.90
12602;DHT22;30282;16.436;99.370;2023-12-04T09:00:35;32.40;99.90
12602;DHT22;30282;16.436;99.370;2023-12-04T09:03:06;32.40;99.90
12602;DHT22;30282;16.436;99.370;2023-12-04T09:05:36;32.50;99.90
12602;DHT22;30282;16.436;99.370;2023-12-04T09:08:05;32.40;99.90
12602;DHT22;30282;16.436;99.370;2023-12-04T09:10:35;32.40;99.90
12602;DHT22;30282;16.436;99.370;2023-12-04T09:13:04;32.40;99.90
12602;DHT22;30282;16.436;99.370;2023-12-04T09:15:34;32.30;99.90
12602;DHT22;30282;16.436;99.370;2023-12-04T09:18:05;32.40;99.90
12602;DHT22;30282;16.436;99.370;2023-12-04T09:20:35;32.30;99.90
12602;DHT22;30282;16.436;99.370;2023-12-04T09:23:04;32.20;99.90
12602;DHT22;30282;16.436;99.370;2023-12-04T09:25:34;32.10;99.90
12602;DHT22;30282;16.436;99.370;2023-12-04T09:28:07;32.10;99.90
12602;DHT22;30282;16.436;99.370;2023-12-04T09:30:37;32.00;99.90
12602;DHT22;30282;16.436;99.370;2023-12-04T09:33:08;32.00;99.90
12602;DHT22;30282;16.436;99.370;2023-12-04T09:35:37;32.00;99.90
12602;DHT22;30282;16.436;99.370;2023-12-04T09:38:07;31.90;99.90
12602;DHT22;30282;16.436;99.370;2023-12-04T09:40:45;31.80;99.90
12602;DHT22;30282;16.436;99.370;2023-12-04T09:43:26;31.70;99.90
12602;DHT22;30282;16.436;99.370;2023-12-04T09:45:56;31.60;99.90
12602;DHT22;30282;16.436;99.370;2023-12-04T09:48:28;31.50;99.90
12602;DHT22;30282;16.436;99.370;2023-12-04T09:51:01;31.40;99.90
12602;DHT22;30282;16.436;99.370;2023-12-04T09:53:31;31.40;99.90
12602;DHT22;30282;16.436;99.370;2023-12-04T09:56:03;31.30;99.90
12602;DHT22;30282;16.436;99.370;2023-12-04T09:58:33;31.20;99.90
12602;DHT22;30282;16.436;99.370;2023-12-04T10:01:04;31.20;99.90
12602;DHT22;30282;16.436;99.370;2023-12-04T10:03:36;31.20;99.90
12602;DHT22;30282;16.436;99.370;2023-12-04T10:06:07;31.20;99.90
12602;DHT22;30282;16.436;99.370;2023-12-04T10:08:37;31.20;99.90
12602;DHT22;30282;16.436;99.370;2023-12-04T10:11:07;31.20;99.90
12602;DHT22;30282;16.436;99.370;2023-12-04T10:13:37;31.10;99.90
12602;DHT22;30282;16.436;99.370;2023-12-04T10:16:07;31.00;99.90
12602;DHT22;30282;16.436;99.370;2023-12-04T10:18:39;30.90;99.90
12602;DHT22;30282;16.436;99.370;2023-12-04T10:21:08;30.90;99.90
12602;DHT22;30282;16.436;99.370;2023-12-04T10:23:39;30.90;99.90
12602;DHT22;30282;16.436;99.370;2023-12-04T10:26:08;30.90;99.90
12602;DHT22;30282;16.436;99.370;2023-12-04T10:28:38;30.80;99.90
12602;DHT22;30282;16.436;99.370;2023-12-04T10:31:07;30.80;99.90
12602;DHT22;30282;16.436;99.370;2023-12-04T10:33:39;30.70;99.90
12602;DHT22;30282;16.436;99.370;2023-12-04T10:36:12;30.60;99.90
12602;DHT22;30282;16.436;99.370;2023-12-04T10:38:42;30.50;99.90
12602;DHT22;30282;16.436;99.370;2023-12-04T10:41:13;30.50;99.90
12602;DHT22;30282;16.436;99.370;2023-12-04T10:43:48;30.40;99.90
12602;DHT22;30282;16.436;99.370;2023-12-04T10:46:18;30.30;99.90
12602;DHT22;30282;16.436;99.370;2023-12-04T10:48:49;30.10;99.90
12602;DHT22;30282;16.436;99.370;2023-12-04T10:51:20;30.00;99.90
12602;DHT22;30282;16.436;99.370;2023-12-04T10:53:50;30.00;99.90
12602;DHT22;30282;16.436;99.370;2023-12-04T10:56:25;29.90;99.90
12602;DHT22;30282;16.436;99.370;2023-12-04T10:59:02;29.90;99.90
12602;DHT22;30282;16.436;99.370;2023-12-04T11:01:32;29.90;99.90
12602;DHT22;30282;16.436;99.370;2023-12-04T11:04:04;29.80;99.90
12602;DHT22;30282;16.436;99.370;2023-12-04T11:06:39;29.80;99.90
12602;DHT22;30282;16.436;99.370;2023-12-04T11:09:10;29.70;99.90
12602;DHT22;30282;16.436;99.370;2023-12-04T11:11:43;29.60;99.90
12602;DHT22;30282;16.436;99.370;2023-12-04T11:14:15;29.60;99.90
12602;DHT22;30282;16.436;99.370;2023-12-04T11:16:51;29.50;99.90
12602;DHT22;30282;16.436;99.370;2023-12-04T11:19:35;29.50;99.90
12602;DHT22;30282;16.436;99.370;2023-12-04T11:22:08;29.40;99.90
12602;DHT22;30282;16.436;99.370;2023-12-04T11:24:40;29.20;99.90
12602;DHT22;30282;16.436;99.370;2023-12-04T11:27:10;29.20;99.90
12602;DHT22;30282;16.436;99.370;2023-12-04T11:29:40;29.10;99.90
12602;DHT22;30282;16.436;99.370;2023-12-04T11:32:14;29.10;99.90
12602;DHT22;30282;16.436;99.370;2023-12-04T11:34:55;29.10;99.90
12602;DHT22;30282;16.436;99.370;2023-12-04T11:37:25;29.00;99.90
12602;DHT22;30282;16.436;99.370;2023-12-04T11:39:55;28.90;99.90
12602;DHT22;30282;16.436;99.370;2023-12-04T11:42:26;28.90;99.90
12602;DHT22;30282;16.436;99.370;2023-12-04T11:44:57;28.90;99.90
12602;DHT22;30282;16.436;99.370;2023-12-04T11:47:28;28.80;99.90
12602;DHT22;30282;16.436;99.370;2023-12-04T11:50:01;28.80;99.90
12602;DHT22;30282;16.436;99.370;2023-12-04T11:52:34;28.70;99.90
12602;DHT22;30282;16.436;99.370;2023-12-04T11:55:04;28.70;99.90
12602;DHT22;30282;16.436;99.370;2023-12-04T11:57:35;28.60;99.90
12602;DHT22;30282;16.436;99.370;2023-12-04T12:00:12;28.60;99.90
12602;DHT22;30282;16.436;99.370;2023-12-04T12:02:51;28.50;99.90
12602;DHT22;30282;16.436;99.370;2023-12-04T12:05:33;28.50;99.90
12602;DHT22;30282;16.436;99.370;2023-12-04T12:08:03;28.30;99.90
12602;DHT22;30282;16.436;99.370;2023-12-04T12:10:33;28.20;99.90
12602;DHT22;30282;16.436;99.370;2023-12-04T12:13:03;28.10;99.90
12602;DHT22;30282;16.436;99.370;2023-12-04T12:15:33;28.10;99.90
12602;DHT22;30282;16.436;99.370;2023-12-04T12:18:02;28.20;99.90
12602;DHT22;30282;16.436;99.370;2023-12-04T12:20:37;28.20;99.90
12602;DHT22;30282;16.436;99.370;2023-12-04T12:23:06;28.20;99.90
12602;DHT22;30282;16.436;99.370;2023-12-04T12:25:36;28.20;99.90
12602;DHT22;30282;16.436;99.370;2023-12-04T12:28:07;28.10;99.90
12602;DHT22;30282;16.436;99.370;2023-12-04T12:30:36;28.10;99.90
12602;DHT22;30282;16.436;99.370;2023-12-04T12:33:06;28.10;99.90
12602;DHT22;30282;16.436;99.370;2023-12-04T12:35:37;28.10;99.90
12602;DHT22;30282;16.436;99.370;2023-12-04T12:38:07;28.00;99.90
12602;DHT22;30282;16.436;99.370;2023-12-04T12:40:37;28.00;99.90
12602;DHT22;30282;16.436;99.370;2023-12-04T12:43:07;28.10;99.90
12602;DHT22;30282;16.436;99.370;2023-12-04T12:45:42;28.00;99.90
12602;DHT22;30282;16.436;99.370;2023-12-04T12:48:14;28.00;99.90
12602;DHT22;30282;16.436;99.370;2023-12-04T12:50:48;28.00;99.90
12602;DHT22;30282;16.436;99.370;2023-12-04T12:53:21;27.90;99.90
12602;DHT22;30282;16.436;99.370;2023-12-04T12:55:51;27.90;99.90
12602;DHT22;30282;16.436;99.370;2023-12-04T12:58:21;27.90;99.90
12602;DHT22;30282;16.436;99.370;2023-12-04T13:00:50;27.80;99.90
12602;DHT22;30282;16.436;99.370;2023-12-04T13:03:25;27.80;99.90
12602;DHT22;30282;16.436;99.370;2023-12-04T13:06:00;27.70;99.90
12602;DHT22;30282;16.436;99.370;2023-12-04T13:08:29;27.70;99.90
12602;DHT22;30282;16.436;99.370;2023-12-04T13:10:59;27.70;99.90
12602;DHT22;30282;16.436;99.370;2023-12-04T13:13:31;27.80;99.90
12602;DHT22;30282;16.436;99.370;2023-12-04T13:16:01;27.80;99.90
12602;DHT22;30282;16.436;99.370;2023-12-04T13:18:30;27.80;99.90
12602;DHT22;30282;16.436;99.370;2023-12-04T13:21:04;27.80;99.90
12602;DHT22;30282;16.436;99.370;2023-12-04T13:23:37;27.80;99.90
12602;DHT22;30282;16.436;99.370;2023-12-04T13:26:07;27.80;99.90
12602;DHT22;30282;16.436;99.370;2023-12-04T13:28:37;27.70;99.90
12602;DHT22;30282;16.436;99.370;2023-12-04T13:31:07;27.70;99.90
12602;DHT22;30282;16.436;99.370;2023-12-04T13:33:36;27.60;99.90
12602;DHT22;30282;16.436;99.370;2023-12-04T13:36:09;27.50;99.90
12602;DHT22;30282;16.436;99.370;2023-12-04T13:38:38;27.40;99.90
12602;DHT22;30282;16.436;99.370;2023-12-04T13:41:08;27.40;99.90
12602;DHT22;30282;16.436;99.370;2023-12-04T13:43:57;27.40;99.90
12602;DHT22;30282;16.436;99.370;2023-12-04T13:46:27;27.30;99.90
12602;DHT22;30282;16.436;99.370;2023-12-04T13:48:56;27.30;99.90
12602;DHT22;30282;16.436;99.370;2023-12-04T13:51:28;27.40;99.90
12602;DHT22;30282;16.436;99.370;2023-12-04T13:54:01;27.30;99.90
12602;DHT22;30282;16.436;99.370;2023-12-04T13:56:42;27.30;99.90
12602;DHT22;30282;16.436;99.370;2023-12-04T13:59:20;27.20;99.90
12602;DHT22;30282;16.436;99.370;2023-12-04T14:01:49;27.20;99.90
12602;DHT22;30282;16.436;99.370;2023-12-04T14:04:21;27.20;99.90
12602;DHT22;30282;16.436;99.370;2023-12-04T14:06:53;27.20;99.90
12602;DHT22;30282;16.436;99.370;2023-12-04T14:09:22;27.20;99.90
12602;DHT22;30282;16.436;99.370;2023-12-04T14:11:52;27.20;99.90
12602;DHT22;30282;16.436;99.370;2023-12-04T14:14:21;27.10;99.90
12602;DHT22;30282;16.436;99.370;2023-12-04T14:16:50;27.10;99.90
12602;DHT22;30282;16.436;99.370;2023-12-04T14:19:20;27.10;99.90
12602;DHT22;30282;16.436;99.370;2023-12-04T14:21:50;27.00;99.90
12602;DHT22;30282;16.436;99.370;2023-12-04T14:24:21;27.00;99.90
12602;DHT22;30282;16.436;99.370;2023-12-04T14:26:50;26.90;99.90
12602;DHT22;30282;16.436;99.370;2023-12-04T14:29:20;26.90;99.90
12602;DHT22;30282;16.436;99.370;2023-12-04T14:31:49;26.70;99.90
12602;DHT22;30282;16.436;99.370;2023-12-04T14:34:18;26.60;99.90
12602;DHT22;30282;16.436;99.370;2023-12-04T14:36:49;26.50;99.90
12602;DHT22;30282;16.436;99.370;2023-12-04T14:39:20;26.60;99.90
12602;DHT22;30282;16.436;99.370;2023-12-04T14:41:50;26.60;99.90
12602;DHT22;30282;16.436;99.370;2023-12-04T14:44:19;26.60;99.90
12602;DHT22;30282;16.436;99.370;2023-12-04T14:46:49;26.70;99.90
12602;DHT22;30282;16.436;99.370;2023-12-04T14:49:18;26.60;99.90
12602;DHT22;30282;16.436;99.370;2023-12-04T14:51:48;26.50;99.90
12602;DHT22;30282;16.436;99.370;2023-12-04T14:54:17;26.50;99.90
12602;DHT22;30282;16.436;99.370;2023-12-04T14:57:06;26.40;99.90
12602;DHT22;30282;16.436;99.370;2023-12-04T14:59:51;26.40;99.90
12602;DHT22;30282;16.436;99.370;2023-12-04T15:02:39;26.40;99.90
12602;DHT22;30282;16.436;99.370;2023-12-04T15:05:30;26.40;99.90
12602;DHT22;30282;16.436;99.370;2023-12-04T15:08:46;26.40;99.90
12602;DHT22;30282;16.436;99.370;2023-12-04T15:11:41;26.40;99.90
12602;DHT22;30282;16.436;99.370;2023-12-04T15:14:36;26.40;99.90
12602;DHT22;30282;16.436;99.370;2023-12-04T15:17:10;26.40;99.90
12602;DHT22;30282;16.436;99.370;2023-12-04T15:19:45;26.40;99.90
12602;DHT22;30282;16.436;99.370;2023-12-04T15:22:42;26.30;99.90
12602;DHT22;30282;16.436;99.370;2023-12-04T15:25:11;26.00;99.90
12602;DHT22;30282;16.436;99.370;2023-12-04T15:27:40;26.00;99.90
12602;DHT22;30282;16.436;99.370;2023-12-04T15:30:11;26.00;99.90
12602;DHT22;30282;16.436;99.370;2023-12-04T15:32:41;26.00;99.90
12602;DHT22;30282;16.436;99.370;2023-12-04T15:35:09;26.00;99.90
12602;DHT22;30282;16.436;99.370;2023-12-04T15:37:39;26.00;99.90
12602;DHT22;30282;16.436;99.370;2023-12-04T15:40:07;26.00;99.90
12602;DHT22;30282;16.436;99.370;2023-12-04T15:42:38;26.00;99.90
12602;DHT22;30282;16.436;99.370;2023-12-04T15:45:06;25.90;99.90